createdAt,value
2023-01-09T00:00:57.686Z,60.33
2023-01-09T00:03:32.835Z,55.30
2023-01-09T00:06:10.187Z,58.63
2023-01-09T00:08:48.363Z,49.10
2023-01-09T00:11:23.093Z,54.10
2023-01-09T00:14:00.467Z,55.00
2023-01-09T00:16:38.209Z,55.35
2023-01-09T00:19:16.050Z,51.85
2023-01-09T00:21:54.976Z,62.78
2023-01-09T00:24:30.958Z,57.55
2023-01-09T00:27:06.090Z,63.80
2023-01-09T00:29:42.049Z,53.10
2023-01-09T00:32:20.804Z,47.72
2023-01-09T00:34:55.587Z,51.07
2023-01-09T00:37:30.877Z,54.87
2023-01-09T00:40:06.097Z,58.33
2023-01-09T00:42:41.785Z,51.77
2023-01-09T00:45:21.505Z,55.75
2023-01-09T00:48:00.462Z,57.13
2023-01-09T00:50:36.068Z,61.10
2023-01-09T00:53:20.103Z,63.60
2023-01-09T00:55:56.580Z,63.70
2023-01-09T00:58:30.868Z,60.55
2023-01-09T01:01:05.022Z,55.30
2023-01-09T01:03:44.242Z,58.87
2023-01-09T01:06:31.943Z,64.50
2023-01-09T01:09:07.272Z,62.85
2023-01-09T01:11:42.943Z,64.00
2023-01-09T01:14:17.868Z,58.45
2023-01-09T01:16:52.304Z,70.65
2023-01-09T01:19:30.599Z,65.88
2023-01-09T01:22:05.630Z,65.97
2023-01-09T01:24:41.004Z,63.80
2023-01-09T01:27:19.341Z,65.72
2023-01-09T01:29:54.991Z,59.90
2023-01-09T01:32:30.444Z,65.45
2023-01-09T01:35:09.320Z,64.75
2023-01-09T01:37:44.683Z,68.63
2023-01-09T01:40:19.134Z,71.40
2023-01-09T01:42:55.218Z,62.20
2023-01-09T01:45:31.113Z,65.20
2023-01-09T01:48:07.485Z,66.50
2023-01-09T01:50:47.886Z,65.35
2023-01-09T01:53:23.062Z,66.85
2023-01-09T01:58:40.902Z,66.75
2023-01-09T02:01:19.792Z,67.38
2023-01-09T02:03:56.732Z,63.63
2023-01-09T02:06:35.343Z,63.78
2023-01-09T02:09:11.572Z,61.97
2023-01-09T02:14:23.244Z,64.50
2023-01-09T02:17:00.965Z,70.50
2023-01-09T02:20:09.130Z,68.57
2023-01-09T02:22:52.799Z,67.30
2023-01-09T02:25:46.117Z,61.00
2023-01-09T02:28:17.043Z,72.85
2023-01-09T02:30:55.555Z,71.88
2023-01-09T02:33:47.607Z,70.85
2023-01-09T02:36:21.090Z,67.68
2023-01-09T02:39:02.083Z,69.40
2023-01-09T02:41:42.866Z,67.55
2023-01-09T02:44:20.673Z,73.00
2023-01-09T02:47:08.512Z,74.85
2023-01-09T02:49:42.888Z,69.32
2023-01-09T02:52:25.393Z,69.30
2023-01-09T02:55:04.213Z,72.72
2023-01-09T02:57:47.537Z,72.28
2023-01-09T03:00:28.044Z,71.80
2023-01-09T03:03:10.480Z,68.20
2023-01-09T03:05:46.472Z,71.72
2023-01-09T03:08:23.437Z,66.90
2023-01-09T03:11:01.379Z,67.57
2023-01-09T03:13:39.252Z,64.45
2023-01-09T03:16:14.840Z,63.60
2023-01-09T03:18:52.688Z,67.88
2023-01-09T03:21:27.425Z,57.70
2023-01-09T03:24:03.128Z,63.03
2023-01-09T03:26:37.967Z,58.33
2023-01-09T03:29:13.874Z,71.27
2023-01-09T03:31:48.927Z,65.65
2023-01-09T03:34:27.134Z,70.82
2023-01-09T03:37:02.034Z,61.65
2023-01-09T03:39:38.029Z,67.05
2023-01-09T03:42:13.166Z,69.53
2023-01-09T03:44:48.230Z,70.22
2023-01-09T03:47:23.126Z,72.35
2023-01-09T03:50:01.520Z,65.57
2023-01-09T03:52:37.026Z,67.78
2023-01-09T03:55:15.621Z,62.58
2023-01-09T03:57:52.870Z,63.58
2023-01-09T04:00:28.405Z,65.82
2023-01-09T04:03:03.334Z,61.03
2023-01-09T04:05:41.434Z,58.30
2023-01-09T04:08:19.491Z,60.23
2023-01-09T04:10:55.127Z,60.92
2023-01-09T04:13:31.162Z,60.38
2023-01-09T04:18:41.819Z,53.00
2023-01-09T04:21:19.933Z,53.03
2023-01-09T04:23:54.473Z,61.50
2023-01-09T04:26:30.113Z,60.33
2023-01-09T04:29:05.979Z,56.25
2023-01-09T04:31:42.661Z,55.72
2023-01-09T04:34:17.206Z,62.25
2023-01-09T04:36:56.369Z,56.22
2023-01-09T04:39:31.927Z,55.33
2023-01-09T04:42:06.108Z,59.78
2023-01-09T04:44:42.320Z,54.55
2023-01-09T04:47:17.947Z,54.95
2023-01-09T04:49:54.222Z,52.95
2023-01-09T04:52:33.346Z,54.23
2023-01-09T04:55:09.019Z,59.70
2023-01-09T04:57:44.095Z,55.60
2023-01-09T05:00:21.205Z,51.13
2023-01-09T05:02:57.310Z,46.38
2023-01-09T05:08:09.800Z,56.20
2023-01-09T05:10:46.389Z,52.85
2023-01-09T05:13:25.199Z,49.88
2023-01-09T05:16:00.616Z,50.25
2023-01-09T05:18:35.106Z,52.25
2023-01-09T05:21:11.142Z,52.78
2023-01-09T05:23:49.280Z,53.33
2023-01-09T05:26:27.191Z,56.50
2023-01-09T05:29:02.729Z,57.00
2023-01-09T05:31:37.515Z,53.00
2023-01-09T05:34:13.006Z,55.50
2023-01-09T05:36:48.833Z,57.70
2023-01-09T05:39:27.715Z,54.90
2023-01-09T05:42:03.073Z,49.03
2023-01-09T05:44:40.187Z,87.90
2023-01-09T05:47:16.412Z,57.70
2023-01-09T05:52:25.255Z,48.88
2023-01-09T05:55:20.702Z,44.47
2023-01-09T05:57:56.273Z,48.33
2023-01-09T06:00:31.592Z,52.55
2023-01-09T06:03:07.249Z,44.80
2023-01-09T06:05:43.316Z,51.15
2023-01-09T06:08:20.270Z,53.60
2023-01-09T06:10:59.148Z,54.35
2023-01-09T06:13:35.158Z,63.75
2023-01-09T06:16:14.569Z,60.90
2023-01-09T06:18:49.530Z,52.65
2023-01-09T06:21:24.879Z,44.60
2023-01-09T06:23:58.833Z,54.33
2023-01-09T06:26:35.961Z,51.83
2023-01-09T06:29:11.801Z,49.63
2023-01-09T06:31:45.696Z,44.63
2023-01-09T06:34:21.022Z,49.13
2023-01-09T06:36:55.978Z,48.93
2023-01-09T06:39:31.042Z,43.03
2023-01-09T06:42:09.443Z,46.90
2023-01-09T06:44:44.045Z,45.65
2023-01-09T06:47:19.030Z,45.42
2023-01-09T06:49:54.234Z,45.08
2023-01-09T06:52:29.672Z,53.45
2023-01-09T06:55:04.520Z,45.80
2023-01-09T06:57:41.274Z,50.03
2023-01-09T07:00:16.728Z,43.55
2023-01-09T07:02:51.116Z,49.75
2023-01-09T07:05:26.200Z,45.80
2023-01-09T07:08:12.731Z,40.93
2023-01-09T07:10:50.078Z,46.28
2023-01-09T07:13:27.655Z,48.92
2023-01-09T07:16:03.593Z,45.53
2023-01-09T07:18:39.819Z,46.95
2023-01-09T07:21:13.841Z,47.80
2023-01-09T07:23:48.622Z,49.00
2023-01-09T07:26:26.150Z,46.13
2023-01-09T07:29:04.462Z,43.65
2023-01-09T07:31:40.914Z,49.00
2023-01-09T07:34:15.644Z,46.10
2023-01-09T07:36:51.455Z,52.13
2023-01-09T07:39:27.149Z,59.30
2023-01-09T07:42:03.390Z,46.65
2023-01-09T07:44:41.218Z,51.17
2023-01-09T07:47:14.215Z,51.78
2023-01-09T07:49:49.963Z,50.05
2023-01-09T07:52:28.196Z,48.93
2023-01-09T07:55:04.678Z,52.45
2023-01-09T07:57:40.968Z,56.00
2023-01-09T08:02:56.240Z,52.42
2023-01-09T08:05:32.312Z,49.08
2023-01-09T08:08:08.641Z,52.08
2023-01-09T08:10:45.025Z,45.88
2023-01-09T08:13:23.918Z,56.60
2023-01-09T08:16:01.668Z,48.17
2023-01-09T08:18:37.063Z,52.25
2023-01-09T08:21:12.691Z,50.80
2023-01-09T08:23:49.121Z,55.53
2023-01-09T08:26:22.301Z,59.65
2023-01-09T08:28:58.480Z,56.00
2023-01-09T08:34:10.594Z,47.85
2023-01-09T08:36:46.460Z,57.17
2023-01-09T08:39:22.411Z,53.80
2023-01-09T08:42:09.898Z,58.80
2023-01-09T08:44:56.886Z,50.75
2023-01-09T08:47:35.461Z,56.80
2023-01-09T08:50:10.829Z,59.05
2023-01-09T08:52:45.948Z,63.53
2023-01-09T08:55:21.979Z,59.95
2023-01-09T08:57:57.833Z,60.75
2023-01-09T09:00:32.628Z,70.95
2023-01-09T09:03:10.606Z,61.28
2023-01-09T09:05:46.943Z,67.72
2023-01-09T09:08:23.644Z,57.63
2023-01-09T09:11:01.575Z,61.25
2023-01-09T09:13:37.598Z,59.08
2023-01-09T09:16:12.523Z,61.78
2023-01-09T09:18:52.587Z,124.50
2023-01-09T09:21:28.492Z,117.78
2023-01-09T09:24:03.762Z,77.68
2023-01-09T09:26:39.453Z,71.05
2023-01-09T09:29:15.688Z,57.53
2023-01-09T09:31:52.278Z,51.65
2023-01-09T09:37:05.981Z,54.30
2023-01-09T09:39:41.268Z,40.80
2023-01-09T09:42:49.461Z,47.30
2023-01-09T09:45:30.206Z,55.37
2023-01-09T09:48:13.160Z,50.15
2023-01-09T09:51:27.459Z,43.40
2023-01-09T09:54:07.655Z,57.60
2023-01-09T09:56:45.324Z,55.78
2023-01-09T09:59:22.429Z,50.60
2023-01-09T10:02:00.221Z,56.55
2023-01-09T10:04:54.954Z,50.07
2023-01-09T10:07:26.168Z,57.25
2023-01-09T10:10:06.024Z,55.73
2023-01-09T10:12:43.068Z,47.25
2023-01-09T10:15:17.471Z,64.00
2023-01-09T10:18:05.565Z,49.75
2023-01-09T10:20:58.950Z,56.97
2023-01-09T10:24:06.950Z,44.72
2023-01-09T10:26:46.327Z,43.90
2023-01-09T10:29:32.820Z,46.80
2023-01-09T10:34:49.117Z,63.40
2023-01-09T10:37:27.299Z,59.70
2023-01-09T10:40:05.796Z,44.47
2023-01-09T10:42:47.763Z,45.00
2023-01-09T10:45:26.566Z,45.20
2023-01-09T10:48:03.804Z,44.95
2023-01-09T10:50:39.258Z,39.05
2023-01-09T10:53:23.472Z,43.20
2023-01-09T10:56:00.078Z,35.23
2023-01-09T10:58:39.213Z,41.72
2023-01-09T11:01:15.362Z,38.88
2023-01-09T11:03:50.982Z,35.55
2023-01-09T11:06:30.283Z,38.40
2023-01-09T11:09:06.554Z,46.50
2023-01-09T11:11:50.416Z,37.00
2023-01-09T11:14:31.760Z,38.13
2023-01-09T11:17:07.371Z,31.77
2023-01-09T11:19:42.905Z,38.70
2023-01-09T11:22:20.158Z,35.10
2023-01-09T11:25:03.334Z,36.42
2023-01-09T11:27:38.784Z,38.05
2023-01-09T11:30:27.354Z,35.70
2023-01-09T11:33:05.332Z,39.20
2023-01-09T11:35:40.699Z,34.10
2023-01-09T11:38:17.870Z,32.00
2023-01-09T11:40:53.233Z,32.63
2023-01-09T11:43:37.921Z,35.60
2023-01-09T11:46:32.147Z,40.75
2023-01-09T11:49:08.671Z,31.52
2023-01-09T11:51:43.607Z,36.85
2023-01-09T11:54:24.362Z,30.75
2023-01-09T11:56:59.224Z,33.17
2023-01-09T11:59:34.486Z,34.92
2023-01-09T12:02:40.344Z,34.43
2023-01-09T12:05:23.755Z,25.42
2023-01-09T12:08:19.824Z,31.67
2023-01-09T12:11:16.124Z,29.00
2023-01-09T12:14:24.408Z,28.27
2023-01-09T12:17:25.081Z,25.52
2023-01-09T12:20:19.367Z,22.73
2023-01-09T12:23:00.252Z,22.83
2023-01-09T12:25:40.964Z,20.45
2023-01-09T12:28:34.544Z,20.08
2023-01-09T12:31:18.216Z,21.75
2023-01-09T12:33:58.437Z,22.25
2023-01-09T12:36:40.682Z,22.90
2023-01-09T12:39:20.965Z,24.92
2023-01-09T12:42:08.222Z,19.52
2023-01-09T12:44:52.651Z,18.73
2023-01-09T12:47:47.113Z,20.60
2023-01-09T12:50:39.896Z,20.70
2023-01-09T12:53:21.390Z,20.80
2023-01-09T12:55:59.949Z,17.60
2023-01-09T12:58:37.725Z,18.20
2023-01-09T13:01:15.173Z,18.20
2023-01-09T13:03:54.396Z,14.88
2023-01-09T13:06:30.337Z,13.75
2023-01-09T13:09:15.745Z,11.93
2023-01-09T13:11:52.757Z,15.63
2023-01-09T13:14:31.738Z,13.60
2023-01-09T13:17:07.241Z,15.55
2023-01-09T13:19:43.043Z,14.10
2023-01-09T13:22:19.444Z,17.83
2023-01-09T13:25:33.088Z,13.93
2023-01-09T13:28:16.241Z,13.77
2023-01-09T13:30:50.452Z,15.25
2023-01-09T13:33:25.747Z,22.40
2023-01-09T13:36:03.210Z,15.10
2023-01-09T13:38:38.702Z,17.35
2023-01-09T13:41:28.806Z,14.30
2023-01-09T13:44:09.515Z,16.48
2023-01-09T13:46:46.373Z,16.95
2023-01-09T13:49:37.302Z,16.92
2023-01-09T13:52:33.022Z,16.45
2023-01-09T13:55:26.864Z,14.10
2023-01-09T13:58:18.891Z,15.20
2023-01-09T14:00:53.759Z,13.57
2023-01-09T14:03:33.808Z,10.70
2023-01-09T14:06:22.329Z,12.50
2023-01-09T14:09:15.041Z,11.43
2023-01-09T14:11:54.011Z,10.90
2023-01-09T14:14:31.698Z,12.13
2023-01-09T14:17:07.153Z,13.07
2023-01-09T14:19:45.595Z,12.00
2023-01-09T14:22:29.033Z,12.00
2023-01-09T14:25:11.685Z,8.98
2023-01-09T14:28:11.844Z,11.60
2023-01-09T14:31:11.119Z,13.52
2023-01-09T14:33:46.116Z,11.27
2023-01-09T14:36:29.604Z,13.02
2023-01-09T14:39:04.369Z,12.40
2023-01-09T14:41:53.104Z,13.40
2023-01-09T14:44:32.093Z,13.80
2023-01-09T14:47:10.505Z,12.50
2023-01-09T14:49:47.083Z,14.65
2023-01-09T14:52:27.275Z,14.75
2023-01-09T14:55:04.831Z,15.60
2023-01-09T14:57:41.433Z,12.63
2023-01-09T15:00:20.888Z,14.45
2023-01-09T15:02:55.526Z,15.15
2023-01-09T15:05:33.645Z,12.60
2023-01-09T15:08:13.637Z,14.48
2023-01-09T15:10:48.912Z,12.85
2023-01-09T15:13:27.065Z,8.90
2023-01-09T15:16:03.325Z,10.90
2023-01-09T15:18:42.596Z,9.13
2023-01-09T15:21:20.681Z,12.02
2023-01-09T15:24:14.903Z,10.40
2023-01-09T15:26:55.100Z,10.90
2023-01-09T15:29:35.546Z,9.73
2023-01-09T15:32:10.974Z,8.50
2023-01-09T15:34:47.032Z,10.60
2023-01-09T15:40:00.881Z,9.00
2023-01-09T15:42:47.786Z,10.93
2023-01-09T15:45:27.104Z,10.07
2023-01-09T15:48:24.365Z,10.60
2023-01-09T15:51:00.326Z,14.52
2023-01-09T15:56:19.831Z,17.73
2023-01-09T15:58:54.696Z,12.40
2023-01-09T16:01:33.913Z,13.73
2023-01-09T16:04:11.691Z,10.77
2023-01-09T16:06:48.144Z,15.03
2023-01-09T16:09:31.389Z,14.77
2023-01-09T16:12:09.628Z,15.70
2023-01-09T16:14:46.795Z,20.90
2023-01-09T16:17:24.048Z,15.82
2023-01-09T16:19:59.510Z,14.57
2023-01-09T16:22:36.233Z,15.05
2023-01-09T16:25:27.802Z,15.67
2023-01-09T16:28:23.333Z,15.30
2023-01-09T16:30:59.351Z,12.98
2023-01-09T16:33:35.080Z,11.95
2023-01-09T16:36:14.167Z,12.02
2023-01-09T16:38:51.294Z,13.00
2023-01-09T16:41:40.354Z,15.05
2023-01-09T16:44:19.602Z,14.90
2023-01-09T16:46:54.853Z,20.35
2023-01-09T16:49:29.723Z,21.80
2023-01-09T16:52:05.596Z,22.15
2023-01-09T16:54:40.238Z,20.27
2023-01-09T16:57:18.549Z,25.63
2023-01-09T16:59:56.785Z,22.92
2023-01-09T17:02:31.837Z,22.63
2023-01-09T17:05:07.325Z,30.58
2023-01-09T17:07:43.916Z,24.50
2023-01-09T17:10:22.333Z,16.60
2023-01-09T17:12:57.535Z,18.60
2023-01-09T17:15:34.793Z,16.27
2023-01-09T17:18:11.379Z,18.35
2023-01-09T17:20:46.658Z,20.45
2023-01-09T17:23:22.855Z,18.25
2023-01-09T17:26:11.126Z,17.80
2023-01-09T17:28:45.535Z,16.67
2023-01-09T17:31:23.692Z,18.08
2023-01-09T17:33:59.011Z,15.35
2023-01-09T17:36:34.923Z,15.30
2023-01-09T17:39:09.348Z,13.25
2023-01-09T17:41:44.949Z,14.50
2023-01-09T17:44:20.046Z,15.55
2023-01-09T17:46:58.386Z,13.75
2023-01-09T17:49:34.072Z,15.88
2023-01-09T17:52:12.878Z,15.10
2023-01-09T17:54:48.441Z,11.02
2023-01-09T17:57:22.917Z,14.57
2023-01-09T17:59:56.913Z,14.02
2023-01-09T18:02:34.736Z,13.80
2023-01-09T18:05:10.034Z,17.80
2023-01-09T18:07:47.315Z,13.98
2023-01-09T18:10:24.498Z,17.35
2023-01-09T18:12:59.416Z,18.23
2023-01-09T18:15:34.651Z,17.65
2023-01-09T18:18:11.744Z,19.17
2023-01-09T18:20:46.756Z,17.70
2023-01-09T18:23:20.932Z,15.10
2023-01-09T18:25:56.109Z,19.95
2023-01-09T18:28:31.326Z,20.85
2023-01-09T18:31:06.048Z,24.80
2023-01-09T18:33:44.028Z,21.05
2023-01-09T18:36:19.238Z,26.33
2023-01-09T18:38:55.154Z,25.20
2023-01-09T18:41:30.515Z,22.98
2023-01-09T18:44:06.281Z,21.55
2023-01-09T18:46:43.755Z,17.58
2023-01-09T18:49:22.177Z,18.23
2023-01-09T18:51:58.052Z,22.25
2023-01-09T18:57:10.778Z,23.90
2023-01-09T18:59:43.874Z,27.52
2023-01-09T19:02:21.865Z,26.92
2023-01-09T19:04:57.396Z,26.23
2023-01-09T19:07:32.950Z,26.10
2023-01-09T19:10:09.367Z,19.33
2023-01-09T19:12:44.940Z,21.75
2023-01-09T19:15:20.644Z,22.98
2023-01-09T19:17:55.987Z,19.35
2023-01-09T19:20:36.518Z,23.00
2023-01-09T19:23:12.112Z,26.38
2023-01-09T19:25:48.646Z,25.10
2023-01-09T19:28:24.070Z,24.60
2023-01-09T19:30:59.371Z,24.13
2023-01-09T19:33:35.932Z,28.38
2023-01-09T19:36:14.775Z,32.17
2023-01-09T19:38:50.473Z,27.60
2023-01-09T19:41:26.037Z,21.03
2023-01-09T19:44:01.959Z,24.00
2023-01-09T19:46:37.763Z,28.05
2023-01-09T19:49:14.078Z,45.70
2023-01-09T19:51:55.303Z,29.05
2023-01-09T19:54:30.583Z,32.40
2023-01-09T19:57:06.549Z,32.30
2023-01-09T19:59:43.750Z,58.50
2023-01-09T20:04:56.227Z,49.37
2023-01-09T20:07:35.672Z,66.53
2023-01-09T20:10:14.603Z,65.18
2023-01-09T20:12:51.036Z,59.15
2023-01-09T20:15:27.350Z,39.75
2023-01-09T20:20:38.027Z,36.80
2023-01-09T20:23:20.342Z,33.05
2023-01-09T20:25:55.603Z,29.30
2023-01-09T20:28:33.811Z,35.23
2023-01-09T20:31:03.364Z,39.05
2023-01-09T20:33:40.861Z,55.73
2023-01-09T20:36:16.160Z,54.45
2023-01-09T20:38:56.691Z,47.72
2023-01-09T20:41:31.851Z,74.90
2023-01-09T20:44:08.033Z,63.20
2023-01-09T20:46:47.537Z,114.03
2023-01-09T20:49:24.545Z,90.63
2023-01-09T20:52:01.882Z,66.80
2023-01-09T20:54:42.166Z,65.50
2023-01-09T20:57:20.989Z,71.00
2023-01-09T20:59:58.675Z,87.57
2023-01-09T21:02:34.908Z,84.55
2023-01-09T21:07:49.679Z,67.50
2023-01-09T21:10:28.603Z,52.85
2023-01-09T21:13:05.913Z,42.38
2023-01-09T21:15:44.408Z,35.88
2023-01-09T21:18:20.945Z,44.08
2023-01-09T21:20:57.763Z,37.72
2023-01-09T21:23:34.016Z,39.07
2023-01-09T21:26:17.451Z,34.33
2023-01-09T21:28:52.325Z,39.00
2023-01-09T21:31:32.264Z,38.57
2023-01-09T21:34:09.722Z,36.97
2023-01-09T21:36:48.054Z,34.83
2023-01-09T21:39:25.686Z,31.38
2023-01-09T21:42:15.662Z,34.95
2023-01-09T21:45:05.325Z,34.38
2023-01-09T21:47:42.793Z,34.45
2023-01-09T21:50:19.563Z,41.25
2023-01-09T21:52:55.343Z,44.80
2023-01-09T21:55:32.273Z,43.30
2023-01-09T21:58:14.670Z,39.72
2023-01-09T22:00:51.647Z,39.03
2023-01-09T22:03:27.437Z,47.35
2023-01-09T22:06:06.219Z,60.13
2023-01-09T22:08:42.557Z,50.67
2023-01-09T22:11:18.509Z,51.15
2023-01-09T22:13:57.676Z,47.70
2023-01-09T22:16:32.559Z,50.38
2023-01-09T22:19:07.763Z,48.10
2023-01-09T22:21:42.251Z,52.58
2023-01-09T22:24:17.780Z,49.40
2023-01-09T22:26:52.504Z,48.47
2023-01-09T22:29:29.552Z,53.65
2023-01-09T22:32:04.405Z,55.35
2023-01-09T22:34:39.312Z,43.65
2023-01-09T22:37:14.578Z,49.65
2023-01-09T22:39:49.466Z,42.10
2023-01-09T22:42:24.482Z,47.50
2023-01-09T22:45:01.809Z,53.67
2023-01-09T22:47:37.457Z,50.47
2023-01-09T22:50:13.392Z,45.17
2023-01-09T22:52:48.864Z,50.30
2023-01-09T22:55:24.002Z,46.92
2023-01-09T22:57:57.855Z,49.75
2023-01-09T23:00:35.272Z,48.83
2023-01-09T23:03:10.424Z,47.50
2023-01-09T23:05:45.806Z,50.45
2023-01-09T23:08:20.586Z,47.33
2023-01-09T23:10:55.489Z,51.67
2023-01-09T23:13:30.280Z,43.80
2023-01-09T23:16:08.586Z,40.55
2023-01-09T23:18:42.959Z,43.55
2023-01-09T23:21:19.800Z,39.87
2023-01-09T23:23:54.389Z,41.88
2023-01-09T23:26:29.299Z,46.20
2023-01-09T23:29:07.083Z,42.27
2023-01-09T23:31:45.809Z,36.40
2023-01-09T23:34:23.800Z,40.90
2023-01-09T23:36:59.732Z,37.83
2023-01-09T23:39:33.951Z,43.30
2023-01-09T23:42:20.564Z,37.90
2023-01-09T23:44:54.087Z,41.25
2023-01-09T23:47:30.699Z,36.05
2023-01-09T23:50:07.175Z,42.72
2023-01-09T23:52:42.655Z,41.25
2023-01-09T23:55:17.971Z,37.42
2023-01-09T23:57:54.606Z,38.47
